createdAt,value
2023-05-02T00:00:15.328Z,101861.19
2023-05-02T00:01:47.602Z,101862.06
2023-05-02T00:03:19.685Z,101862.97
2023-05-02T00:04:51.631Z,101861.22
2023-05-02T00:06:23.593Z,101863.84
2023-05-02T00:07:55.634Z,101867.34
2023-05-02T00:09:27.670Z,101875.19
2023-05-02T00:10:59.569Z,101869.06
2023-05-02T00:12:31.501Z,101867.31
2023-05-02T00:14:03.397Z,101876.09
2023-05-02T00:15:35.293Z,101881.34
2023-05-02T00:17:07.247Z,101863.00
2023-05-02T00:18:39.213Z,101864.75
2023-05-02T00:20:12.070Z,101870.00
2023-05-02T00:21:43.796Z,101859.53
2023-05-02T00:23:15.720Z,101862.13
2023-05-02T00:24:47.584Z,101868.25
2023-05-02T00:26:19.473Z,101869.16
2023-05-02T00:27:51.755Z,101868.25
2023-05-02T00:29:23.729Z,101869.16
2023-05-02T00:30:55.621Z,101877.06
2023-05-02T00:32:28.412Z,101881.38
2023-05-02T00:34:00.177Z,101883.13
2023-05-02T00:35:33.784Z,101874.38
2023-05-02T00:37:05.694Z,101876.13
2023-05-02T00:38:37.555Z,101888.38
2023-05-02T00:40:09.831Z,101884.06
2023-05-02T00:41:41.698Z,101884.94
2023-05-02T00:43:14.656Z,101886.69
2023-05-02T00:44:47.477Z,101887.56
2023-05-02T00:46:19.324Z,101882.31
2023-05-02T00:47:51.427Z,101880.56
2023-05-02T00:49:23.358Z,101890.19
2023-05-02T00:50:55.841Z,101892.81
2023-05-02T00:52:28.808Z,101888.41
2023-05-02T00:54:01.864Z,101884.88
2023-05-02T00:55:34.636Z,101879.63
2023-05-02T00:57:07.071Z,101882.25
2023-05-02T00:58:41.305Z,101881.38
2023-05-02T01:00:13.805Z,101884.88
2023-05-02T01:01:59.538Z,101884.00
2023-05-02T01:03:37.635Z,101881.38
2023-05-02T01:05:25.677Z,101889.22
2023-05-02T01:07:34.368Z,101884.00
2023-05-02T01:09:27.770Z,101891.00
2023-05-02T01:11:12.408Z,101894.47
2023-05-02T01:12:55.160Z,101877.00
2023-05-02T01:14:30.213Z,101883.13
2023-05-02T01:16:03.696Z,101877.00
2023-05-02T01:17:36.336Z,101879.69
2023-05-02T01:19:16.695Z,101878.81
2023-05-02T01:20:52.362Z,101886.69
2023-05-02T01:22:27.341Z,101889.31
2023-05-02T01:24:14.000Z,101888.44
2023-05-02T01:25:53.162Z,101884.94
2023-05-02T01:27:27.839Z,101889.28
2023-05-02T01:29:01.326Z,101889.31
2023-05-02T01:30:35.065Z,101888.44
2023-05-02T01:32:08.148Z,101884.88
2023-05-02T01:33:40.788Z,101882.25
2023-05-02T01:35:15.406Z,101894.50
2023-05-02T01:36:49.521Z,101891.88
2023-05-02T01:38:22.651Z,101891.84
2023-05-02T01:39:56.452Z,101892.75
2023-05-02T01:41:30.848Z,101891.91
2023-05-02T01:43:05.243Z,101891.00
2023-05-02T01:44:37.783Z,101895.38
2023-05-02T01:46:10.297Z,101897.09
2023-05-02T01:47:44.137Z,101888.34
2023-05-02T01:49:16.624Z,101897.09
2023-05-02T01:50:49.302Z,101901.47
2023-05-02T01:52:22.150Z,101901.47
2023-05-02T01:53:53.923Z,101906.72
2023-05-02T01:55:26.321Z,101907.59
2023-05-02T01:56:58.881Z,101903.28
2023-05-02T01:58:31.130Z,101905.91
2023-05-02T02:00:05.177Z,101904.97
2023-05-02T02:01:45.559Z,101906.72
2023-05-02T02:03:17.417Z,101914.59
2023-05-02T02:04:50.137Z,101913.72
2023-05-02T02:06:22.221Z,101921.56
2023-05-02T02:07:54.426Z,101912.81
2023-05-02T02:09:26.473Z,101926.75
2023-05-02T02:10:59.948Z,101924.16
2023-05-02T02:12:36.953Z,101923.28
2023-05-02T02:14:13.155Z,101930.28
2023-05-02T02:15:47.659Z,101934.66
2023-05-02T02:17:26.185Z,101936.41
2023-05-02T02:18:59.588Z,101933.75
2023-05-02T02:20:32.620Z,101933.78
2023-05-02T02:22:05.543Z,101933.78
2023-05-02T02:23:38.718Z,101939.03
2023-05-02T02:25:15.583Z,101932.91
2023-05-02T02:26:47.463Z,101944.25
2023-05-02T02:28:19.338Z,101939.84
2023-05-02T02:29:51.310Z,101933.78
2023-05-02T02:31:25.928Z,101934.66
2023-05-02T02:32:58.026Z,101941.66
2023-05-02T02:34:30.074Z,101940.78
2023-05-02T02:36:08.847Z,101955.66
2023-05-02T02:37:55.411Z,101949.53
2023-05-02T02:39:38.673Z,101951.28
2023-05-02T02:41:15.654Z,101955.66
2023-05-02T02:43:10.157Z,101958.25
2023-05-02T02:44:56.805Z,101961.75
2023-05-02T02:46:51.112Z,101962.59
2023-05-02T02:49:02.106Z,101961.72
2023-05-02T02:50:42.016Z,101962.59
2023-05-02T02:52:39.882Z,101959.94
2023-05-02T02:54:26.437Z,101959.94
2023-05-02T02:56:06.978Z,101962.53
2023-05-02T02:57:50.149Z,101948.53
2023-05-02T02:59:32.937Z,101957.28
2023-05-02T03:01:06.644Z,101959.91
2023-05-02T03:02:41.755Z,101956.38
2023-05-02T03:04:13.864Z,101959.00
2023-05-02T03:05:46.395Z,101959.03
2023-05-02T03:07:19.859Z,101959.84
2023-05-02T03:08:51.904Z,101959.84
2023-05-02T03:10:25.693Z,101972.09
2023-05-02T03:11:57.852Z,101973.84
2023-05-02T03:13:31.220Z,101981.72
2023-05-02T03:15:25.524Z,101979.06
2023-05-02T03:16:57.985Z,101982.53
2023-05-02T03:18:29.869Z,101975.53
2023-05-02T03:20:02.019Z,101970.28
2023-05-02T03:21:34.749Z,101973.84
2023-05-02T03:23:13.152Z,101979.09
2023-05-02T03:24:45.045Z,101974.72
2023-05-02T03:26:18.813Z,101974.72
2023-05-02T03:27:51.007Z,101978.19
2023-05-02T03:29:23.408Z,101985.25
2023-05-02T03:30:55.477Z,101989.63
2023-05-02T03:32:27.644Z,101987.88
2023-05-02T03:33:59.569Z,101984.38
2023-05-02T03:35:31.521Z,101988.75
2023-05-02T03:37:03.733Z,101994.91
2023-05-02T03:38:38.012Z,101993.13
2023-05-02T03:40:13.230Z,102003.59
2023-05-02T03:41:45.206Z,101996.56
2023-05-02T03:43:20.015Z,102005.34
2023-05-02T03:44:54.008Z,102006.22
2023-05-02T03:46:26.123Z,102010.59
2023-05-02T03:47:58.681Z,102004.44
2023-05-02T03:49:30.858Z,102002.66
2023-05-02T03:51:03.850Z,102013.16
2023-05-02T03:52:39.224Z,102015.78
2023-05-02T03:54:11.342Z,102001.78
2023-05-02T03:55:46.754Z,102014.00
2023-05-02T03:57:25.856Z,102013.97
2023-05-02T03:58:58.269Z,102019.22
2023-05-02T04:00:32.080Z,102017.50
2023-05-02T04:02:09.384Z,102019.25
2023-05-02T04:03:45.523Z,102028.88
2023-05-02T04:05:19.229Z,102021.88
2023-05-02T04:06:53.240Z,102028.88
2023-05-02T04:08:26.446Z,102026.25
2023-05-02T04:09:58.934Z,102031.50
2023-05-02T04:11:31.834Z,102020.97
2023-05-02T04:13:04.204Z,102025.31
2023-05-02T04:14:40.279Z,102031.44
2023-05-02T04:16:12.371Z,102031.47
2023-05-02T04:17:44.749Z,102031.47
2023-05-02T04:19:19.004Z,102038.47
2023-05-02T04:20:51.064Z,102029.69
2023-05-02T04:22:24.683Z,102045.41
2023-05-02T04:24:06.242Z,102041.88
2023-05-02T04:25:38.439Z,102045.41
2023-05-02T04:27:13.734Z,102048.91
2023-05-02T04:28:47.382Z,102043.66
2023-05-02T04:30:20.983Z,102051.53
2023-05-02T04:32:01.782Z,102054.97
2023-05-02T04:33:35.184Z,102061.13
2023-05-02T04:35:08.223Z,102054.09
2023-05-02T04:36:41.329Z,102062.81
2023-05-02T04:38:16.187Z,102054.00
2023-05-02T04:39:48.865Z,102069.81
2023-05-02T04:41:24.564Z,102064.50
2023-05-02T04:43:03.214Z,102067.09
2023-05-02T04:44:49.373Z,102074.97
2023-05-02T04:46:21.765Z,102084.53
2023-05-02T04:47:53.940Z,102078.47
2023-05-02T04:49:25.874Z,102075.84
2023-05-02T04:50:57.732Z,102078.56
2023-05-02T04:52:30.623Z,102078.56
2023-05-02T04:54:02.673Z,102077.66
2023-05-02T04:55:35.045Z,102082.91
2023-05-02T04:57:08.203Z,102088.16
2023-05-02T04:58:42.826Z,102086.41
2023-05-02T05:00:16.619Z,102091.66
2023-05-02T05:01:49.235Z,102089.97
2023-05-02T05:03:21.669Z,102089.06
2023-05-02T05:04:53.738Z,102096.06
2023-05-02T05:06:25.808Z,102092.56
2023-05-02T05:07:58.931Z,102094.25
2023-05-02T05:09:34.629Z,102105.50
2023-05-02T05:11:06.850Z,102107.28
2023-05-02T05:12:39.126Z,102106.38
2023-05-02T05:14:11.101Z,102115.09
2023-05-02T05:15:45.022Z,102131.66
2023-05-02T05:17:17.492Z,102123.75
2023-05-02T05:18:49.835Z,102127.16
2023-05-02T05:20:21.907Z,102141.19
2023-05-02T05:21:56.053Z,102135.94
2023-05-02T05:23:28.716Z,102126.25
2023-05-02T05:25:00.688Z,102139.34
2023-05-02T05:26:35.795Z,102136.69
2023-05-02T05:28:08.170Z,102140.19
2023-05-02T05:29:42.139Z,102141.91
2023-05-02T05:31:18.075Z,102144.50
2023-05-02T05:32:53.774Z,102143.59
2023-05-02T05:34:27.388Z,102146.22
2023-05-02T05:36:10.053Z,102148.03
2023-05-02T05:37:41.943Z,102152.44
2023-05-02T05:39:17.085Z,102158.56
2023-05-02T05:40:51.454Z,102167.31
2023-05-02T05:42:23.714Z,102169.06
2023-05-02T05:43:59.175Z,102169.00
2023-05-02T05:45:32.429Z,102168.09
2023-05-02T05:47:04.521Z,102169.00
2023-05-02T05:48:36.554Z,102174.19
2023-05-02T05:50:08.928Z,102173.34
2023-05-02T05:51:40.838Z,102172.53
2023-05-02T05:53:14.076Z,102172.53
2023-05-02T05:54:47.457Z,102177.84
2023-05-02T05:56:19.470Z,102176.03
2023-05-02T05:58:01.729Z,102177.78
2023-05-02T05:59:36.473Z,102190.03
2023-05-02T06:01:09.312Z,102186.53
2023-05-02T06:02:41.614Z,102186.50
2023-05-02T06:04:15.755Z,102192.59
2023-05-02T06:05:51.286Z,102193.63
2023-05-02T06:07:23.527Z,102190.22
2023-05-02T06:08:55.430Z,102192.88
2023-05-02T06:10:27.505Z,102191.09
2023-05-02T06:11:59.565Z,102192.88
2023-05-02T06:13:31.718Z,102201.66
2023-05-02T06:15:03.975Z,102195.56
2023-05-02T06:16:36.051Z,102195.63
2023-05-02T06:18:08.097Z,102204.34
2023-05-02T06:19:40.534Z,102196.56
2023-05-02T06:21:12.729Z,102207.06
2023-05-02T06:22:44.603Z,102207.06
2023-05-02T06:24:16.496Z,102207.09
2023-05-02T06:25:48.401Z,102207.88
2023-05-02T06:27:20.354Z,102199.94
2023-05-02T06:28:52.273Z,102209.59
2023-05-02T06:30:24.155Z,102207.88
2023-05-02T06:31:57.223Z,102213.13
2023-05-02T06:33:30.787Z,102219.19
2023-05-02T06:35:02.908Z,102223.63
2023-05-02T06:36:34.839Z,102220.94
2023-05-02T06:38:06.725Z,102226.22
2023-05-02T06:39:38.682Z,102230.63
2023-05-02T06:41:17.869Z,102228.91
2023-05-02T06:42:50.180Z,102239.41
2023-05-02T06:44:22.052Z,102233.31
2023-05-02T06:45:55.393Z,102235.97
2023-05-02T06:47:28.008Z,102241.25
2023-05-02T06:48:59.882Z,102238.72
2023-05-02T06:50:31.823Z,102242.25
2023-05-02T06:52:03.762Z,102236.97
2023-05-02T06:53:35.905Z,102245.72
2023-05-02T06:55:08.299Z,102247.50
2023-05-02T06:56:40.244Z,102251.03
2023-05-02T06:58:12.251Z,102249.31
2023-05-02T06:59:44.201Z,102260.78
2023-05-02T07:01:16.177Z,102259.84
2023-05-02T07:02:49.201Z,102269.50
2023-05-02T07:04:21.316Z,102273.94
2023-05-02T07:05:53.224Z,102260.72
2023-05-02T07:07:25.172Z,102270.44
2023-05-02T07:08:57.537Z,102267.84
2023-05-02T07:10:29.452Z,102267.03
2023-05-02T07:12:05.262Z,102268.84
2023-05-02T07:13:38.091Z,102267.19
2023-05-02T07:15:10.554Z,102275.03
2023-05-02T07:16:42.557Z,102268.94
2023-05-02T07:18:14.607Z,102270.72
2023-05-02T07:19:46.547Z,102272.50
2023-05-02T07:21:19.449Z,102284.72
2023-05-02T07:22:51.459Z,102283.72
2023-05-02T07:24:23.421Z,102296.81
2023-05-02T07:25:55.386Z,102282.78
2023-05-02T07:27:27.359Z,102287.16
2023-05-02T07:28:59.294Z,102287.16
2023-05-02T07:30:31.296Z,102288.00
2023-05-02T07:32:03.732Z,102298.50
2023-05-02T07:33:35.836Z,102303.69
2023-05-02T07:35:08.301Z,102302.84
2023-05-02T07:36:40.301Z,102301.03
2023-05-02T07:38:12.223Z,102316.78
2023-05-02T07:39:44.184Z,102308.09
2023-05-02T07:41:16.119Z,102308.09
2023-05-02T07:42:48.917Z,102308.97
2023-05-02T07:44:21.869Z,102312.41
2023-05-02T07:45:53.926Z,102316.75
2023-05-02T07:47:27.028Z,102314.91
2023-05-02T07:48:59.035Z,102314.91
2023-05-02T07:50:31.345Z,102321.88
2023-05-02T07:52:03.489Z,102323.53
2023-05-02T07:53:35.600Z,102325.28
2023-05-02T07:55:07.888Z,102333.16
2023-05-02T07:56:39.860Z,102332.16
2023-05-02T07:58:11.975Z,102330.31
2023-05-02T07:59:43.973Z,102335.56
2023-05-02T08:01:15.925Z,102335.56
2023-05-02T08:02:48.218Z,102337.31
2023-05-02T08:04:20.227Z,102340.81
2023-05-02T08:05:52.369Z,102342.56
2023-05-02T08:07:24.288Z,102339.03
2023-05-02T08:08:57.114Z,102347.75
2023-05-02T08:10:28.914Z,102346.03
2023-05-02T08:12:02.829Z,102333.75
2023-05-02T08:13:34.868Z,102351.31
2023-05-02T08:15:12.683Z,102345.19
2023-05-02T08:16:46.260Z,102350.47
2023-05-02T08:18:18.770Z,102354.75
2023-05-02T08:19:50.675Z,102357.41
2023-05-02T08:21:22.694Z,102364.31
2023-05-02T08:22:54.539Z,102361.69
2023-05-02T08:24:26.504Z,102367.88
2023-05-02T08:25:58.550Z,102371.34
2023-05-02T08:27:30.478Z,102359.00
2023-05-02T08:29:04.671Z,102371.25
2023-05-02T08:30:36.553Z,102375.59
2023-05-02T08:32:08.599Z,102378.22
2023-05-02T08:33:40.615Z,102376.47
2023-05-02T08:35:12.608Z,102374.63
2023-05-02T08:36:44.654Z,102379.97
2023-05-02T08:38:16.679Z,102382.72
2023-05-02T08:39:48.674Z,102386.22
2023-05-02T08:41:20.740Z,102389.81
2023-05-02T08:42:55.747Z,102394.16
2023-05-02T08:44:28.162Z,102395.06
2023-05-02T08:46:00.446Z,102398.69
2023-05-02T08:47:33.278Z,102398.72
2023-05-02T08:49:06.014Z,102392.66
2023-05-02T08:50:42.790Z,102393.63
2023-05-02T08:52:14.861Z,102401.63
2023-05-02T08:53:46.907Z,102404.25
2023-05-02T08:55:19.525Z,102409.56
2023-05-02T08:56:52.449Z,102406.00
2023-05-02T08:58:24.271Z,102412.25
2023-05-02T08:59:56.163Z,102402.69
2023-05-02T09:01:30.903Z,102404.44
2023-05-02T09:03:02.864Z,102406.28
2023-05-02T09:04:38.002Z,102410.72
2023-05-02T09:06:09.938Z,102410.75
2023-05-02T09:07:49.782Z,102416.03
2023-05-02T09:09:21.721Z,102411.66
2023-05-02T09:10:53.745Z,102414.41
2023-05-02T09:12:27.185Z,102418.97
2023-05-02T09:14:04.181Z,102425.09
2023-05-02T09:15:36.292Z,102419.06
2023-05-02T09:17:08.235Z,102417.34
2023-05-02T09:18:45.964Z,102415.72
2023-05-02T09:20:18.025Z,102413.22
2023-05-02T09:21:50.227Z,102409.75
2023-05-02T09:23:42.144Z,102409.84
2023-05-02T09:25:14.724Z,102424.75
2023-05-02T09:26:58.963Z,102421.28
2023-05-02T09:28:42.341Z,102420.41
2023-05-02T09:30:22.029Z,102424.75
2023-05-02T09:31:56.066Z,102425.56
2023-05-02T09:33:28.460Z,102428.16
2023-05-02T09:35:07.523Z,102434.28
2023-05-02T09:36:44.473Z,102438.66
2023-05-02T09:38:21.317Z,102441.31
2023-05-02T09:40:06.505Z,102440.47
2023-05-02T09:41:43.025Z,102445.63
2023-05-02T09:43:17.334Z,102443.91
2023-05-02T09:44:49.339Z,102444.84
2023-05-02T09:46:21.738Z,102451.84
2023-05-02T09:47:54.397Z,102452.75
2023-05-02T09:49:46.337Z,102457.09
2023-05-02T09:51:19.712Z,102457.09
2023-05-02T09:53:08.167Z,102459.72
2023-05-02T09:54:40.543Z,102460.63
2023-05-02T09:56:12.622Z,102459.75
2023-05-02T09:57:44.496Z,102466.69
2023-05-02T09:59:17.009Z,102473.75
2023-05-02T10:00:50.580Z,102465.91
2023-05-02T10:02:23.015Z,102475.50
2023-05-02T10:03:55.222Z,102476.34
2023-05-02T10:05:27.840Z,102478.97
2023-05-02T10:07:00.085Z,102481.59
2023-05-02T10:08:35.479Z,102479.81
2023-05-02T10:10:08.924Z,102481.56
2023-05-02T10:11:42.758Z,102492.19
2023-05-02T10:13:16.800Z,102489.53
2023-05-02T10:14:54.497Z,102493.91
2023-05-02T10:16:29.302Z,102490.38
2023-05-02T10:18:08.817Z,102487.75
2023-05-02T10:19:53.587Z,102493.06
2023-05-02T10:21:27.858Z,102492.22
2023-05-02T10:23:01.297Z,102492.19
2023-05-02T10:24:33.866Z,102486.84
2023-05-02T10:26:05.883Z,102483.38
2023-05-02T10:27:38.164Z,102487.72
2023-05-02T10:29:11.224Z,102489.50
2023-05-02T10:30:43.788Z,102489.56
2023-05-02T10:32:19.024Z,102494.13
2023-05-02T10:33:51.890Z,102494.16
2023-05-02T10:35:23.745Z,102488.97
2023-05-02T10:37:02.366Z,102489.00
2023-05-02T10:38:34.565Z,102489.94
2023-05-02T10:40:11.459Z,102483.84
2023-05-02T10:41:44.200Z,102488.38
2023-05-02T10:43:16.727Z,102486.69
2023-05-02T10:44:50.687Z,102487.56
2023-05-02T10:46:34.194Z,102485.78
2023-05-02T10:48:13.361Z,102491.06
2023-05-02T10:49:51.474Z,102493.72
2023-05-02T10:51:29.692Z,102491.91
2023-05-02T10:53:37.120Z,102489.22
2023-05-02T10:55:23.004Z,102488.41
2023-05-02T10:57:03.780Z,102492.84
2023-05-02T10:58:35.764Z,102490.25
2023-05-02T11:00:25.306Z,102496.34
2023-05-02T11:01:58.101Z,102493.66
2023-05-02T11:03:48.583Z,102488.41
2023-05-02T11:05:22.745Z,102480.56
2023-05-02T11:06:57.619Z,102487.59
2023-05-02T11:08:29.519Z,102485.84
2023-05-02T11:10:22.738Z,102485.88
2023-05-02T11:11:56.666Z,102481.47
2023-05-02T11:13:51.220Z,102480.59
2023-05-02T11:15:29.102Z,102486.78
2023-05-02T11:17:06.871Z,102482.41
2023-05-02T11:19:01.342Z,102491.22
2023-05-02T11:20:34.679Z,102478.94
2023-05-02T11:22:33.085Z,102485.97
2023-05-02T11:24:42.723Z,102485.09
2023-05-02T11:26:23.568Z,102478.06
2023-05-02T11:27:55.594Z,102491.25
2023-05-02T11:29:52.286Z,102485.09
2023-05-02T11:31:26.996Z,102485.09
2023-05-02T11:33:04.996Z,102482.53
2023-05-02T11:34:42.328Z,102486.03
2023-05-02T11:36:14.317Z,102486.03
2023-05-02T11:37:59.073Z,102488.69
2023-05-02T11:39:31.022Z,102490.44
2023-05-02T11:41:04.644Z,102489.56
2023-05-02T11:42:36.617Z,102495.63
2023-05-02T11:44:08.677Z,102497.38
2023-05-02T11:45:42.818Z,102486.91
2023-05-02T11:47:14.844Z,102486.03
2023-05-02T11:48:46.767Z,102499.22
2023-05-02T11:50:18.980Z,102486.03
2023-05-02T11:51:52.060Z,102493.88
2023-05-02T11:53:26.008Z,102497.38
2023-05-02T11:54:58.200Z,102495.59
2023-05-02T11:56:30.148Z,102500.88
2023-05-02T11:58:02.071Z,102493.94
2023-05-02T11:59:53.311Z,102495.69
2023-05-02T12:01:25.251Z,102504.47
2023-05-02T12:02:57.270Z,102499.19
2023-05-02T12:04:29.645Z,102497.44
2023-05-02T12:06:16.199Z,102510.63
2023-05-02T12:07:49.536Z,102510.66
2023-05-02T12:09:22.385Z,102508.00
2023-05-02T12:10:55.031Z,102518.56
2023-05-02T12:12:27.015Z,102514.16
2023-05-02T12:13:59.074Z,102514.16
2023-05-02T12:15:31.024Z,102520.31
2023-05-02T12:17:03.927Z,102508.88
2023-05-02T12:18:36.455Z,102521.19
2023-05-02T12:20:09.741Z,102523.84
2023-05-02T12:21:41.744Z,102515.91
2023-05-02T12:23:13.949Z,102524.69
2023-05-02T12:24:46.885Z,102524.69
2023-05-02T12:26:29.621Z,102517.69
2023-05-02T12:28:02.743Z,102519.44
2023-05-02T12:29:45.535Z,102521.16
2023-05-02T12:31:17.840Z,102525.50
2023-05-02T12:32:59.746Z,102518.53
2023-05-02T12:34:33.225Z,102523.75
2023-05-02T12:36:08.588Z,102529.03
2023-05-02T12:37:40.909Z,102527.22
2023-05-02T12:39:14.087Z,102523.69
2023-05-02T12:40:54.221Z,102517.38
2023-05-02T12:42:27.081Z,102517.16
2023-05-02T12:44:00.892Z,102513.75
2023-05-02T12:45:34.825Z,102521.59
2023-05-02T12:47:08.195Z,102517.09
2023-05-02T12:48:40.197Z,102522.34
2023-05-02T12:50:12.097Z,102518.03
2023-05-02T12:51:54.019Z,102521.50
2023-05-02T12:53:44.695Z,102528.63
2023-05-02T12:55:25.203Z,102526.03
2023-05-02T12:56:57.144Z,102527.03
2023-05-02T12:58:29.646Z,102525.22
2023-05-02T13:00:01.829Z,102528.72
2023-05-02T13:01:34.710Z,102528.53
2023-05-02T13:03:07.356Z,102531.19
2023-05-02T13:04:42.408Z,102527.75
2023-05-02T13:06:14.359Z,102523.31
2023-05-02T13:07:47.111Z,102525.06
2023-05-02T13:09:18.937Z,102528.56
2023-05-02T13:10:50.878Z,102527.72
2023-05-02T13:12:22.784Z,102523.50
2023-05-02T13:13:55.350Z,102528.78
2023-05-02T13:15:27.462Z,102533.03
2023-05-02T13:17:00.015Z,102534.84
2023-05-02T13:18:32.204Z,102525.09
2023-05-02T13:20:05.130Z,102534.72
2023-05-02T13:24:22.119Z,102534.53
2023-05-02T13:25:54.590Z,102532.03
2023-05-02T13:27:27.187Z,102533.81
2023-05-02T13:28:59.224Z,102530.31
2023-05-02T13:30:31.423Z,102531.06
2023-05-02T13:32:04.098Z,102532.03
2023-05-02T13:33:36.298Z,102529.28
2023-05-02T13:35:08.846Z,102528.41
2023-05-02T13:36:46.529Z,102540.69
2023-05-02T13:38:18.867Z,102538.13
2023-05-02T13:39:51.023Z,102543.44
2023-05-02T13:41:24.813Z,102535.47
2023-05-02T13:42:56.970Z,102542.41
2023-05-02T13:44:29.376Z,102535.19
2023-05-02T13:46:01.622Z,102524.63
2023-05-02T13:47:33.994Z,102527.50
2023-05-02T13:49:06.444Z,102536.19
2023-05-02T13:50:39.311Z,102527.38
2023-05-02T13:52:11.345Z,102529.00
2023-05-02T13:53:43.390Z,102524.50
2023-05-02T13:55:15.362Z,102525.28
2023-05-02T13:56:47.444Z,102513.78
2023-05-02T13:58:19.407Z,102514.00
2023-05-02T13:59:51.993Z,102520.94
2023-05-02T14:01:24.335Z,102519.78
2023-05-02T14:02:56.469Z,102523.56
2023-05-02T14:04:28.600Z,102518.94
2023-05-02T14:06:01.011Z,102511.13
2023-05-02T14:07:33.263Z,102516.53
2023-05-02T14:09:05.478Z,102505.84
2023-05-02T14:10:38.185Z,102508.50
2023-05-02T14:12:10.637Z,102510.38
2023-05-02T14:13:42.881Z,102510.47
2023-05-02T14:15:15.538Z,102504.50
2023-05-02T14:16:49.628Z,102519.44
2023-05-02T14:18:22.453Z,102516.84
2023-05-02T14:19:54.888Z,102513.22
2023-05-02T14:21:27.596Z,102516.66
2023-05-02T14:22:59.895Z,102521.19
2023-05-02T14:24:32.058Z,102518.53
2023-05-02T14:26:04.390Z,102511.41
2023-05-02T14:27:36.687Z,102513.16
2023-05-02T14:29:09.476Z,102499.88
2023-05-02T14:30:41.529Z,102505.25
2023-05-02T14:32:14.279Z,102512.53
2023-05-02T14:33:46.630Z,102503.63
2023-05-02T14:35:18.809Z,102506.31
2023-05-02T14:36:50.917Z,102505.63
2023-05-02T14:38:22.994Z,102506.50
2023-05-02T14:39:56.746Z,102512.69
2023-05-02T14:41:28.809Z,102502.94
2023-05-02T14:43:01.576Z,102499.28
2023-05-02T14:44:33.375Z,102503.78
2023-05-02T14:46:05.662Z,102502.84
2023-05-02T14:47:37.744Z,102507.03
2023-05-02T14:49:10.062Z,102507.97
2023-05-02T14:50:42.093Z,102507.94
2023-05-02T14:52:16.424Z,102508.94
2023-05-02T14:53:49.269Z,102507.03
2023-05-02T14:55:21.159Z,102511.41
2023-05-02T14:56:54.205Z,102500.66
2023-05-02T14:58:26.249Z,102498.84
2023-05-02T14:59:58.196Z,102500.63
2023-05-02T15:01:30.815Z,102492.69
2023-05-02T15:03:04.507Z,102494.41
2023-05-02T15:04:38.783Z,102487.47
2023-05-02T15:06:11.100Z,102499.78
2023-05-02T15:07:43.195Z,102505.16
2023-05-02T15:09:16.350Z,102506.03
2023-05-02T15:10:48.459Z,102499.09
2023-05-02T15:12:20.381Z,102501.03
2023-05-02T15:13:52.541Z,102508.88
2023-05-02T15:15:25.527Z,102503.56
2023-05-02T15:16:57.944Z,102507.94
2023-05-02T15:18:30.293Z,102505.41
2023-05-02T15:20:02.492Z,102502.03
2023-05-02T15:21:35.519Z,102502.91
2023-05-02T15:23:07.639Z,102511.81
2023-05-02T15:24:39.786Z,102512.00
2023-05-02T15:26:11.891Z,102512.13
2023-05-02T15:27:44.624Z,102504.19
2023-05-02T15:29:16.729Z,102512.09
2023-05-02T15:30:49.537Z,102507.72
2023-05-02T15:32:22.366Z,102509.44
2023-05-02T15:33:54.321Z,102508.56
2023-05-02T15:35:26.347Z,102506.72
2023-05-02T15:37:00.298Z,102511.91
2023-05-02T15:38:34.401Z,102497.94
2023-05-02T15:40:07.395Z,102513.72
2023-05-02T15:41:39.435Z,102518.09
2023-05-02T15:43:11.730Z,102513.00
2023-05-02T15:44:43.697Z,102511.31
2023-05-02T15:46:16.277Z,102508.66
2023-05-02T15:47:48.313Z,102520.06
2023-05-02T15:49:20.736Z,102516.56
2023-05-02T15:50:53.732Z,102518.31
2023-05-02T15:52:25.712Z,102518.25
2023-05-02T15:53:57.783Z,102513.88
2023-05-02T15:55:30.307Z,102523.50
2023-05-02T15:57:02.909Z,102519.09
2023-05-02T15:58:34.945Z,102515.59
2023-05-02T16:00:07.675Z,102520.91
2023-05-02T16:01:39.858Z,102515.59
2023-05-02T16:03:15.753Z,102523.38
2023-05-02T16:04:47.826Z,102516.25
2023-05-02T16:06:41.805Z,102525.13
2023-05-02T16:08:13.805Z,102519.94
2023-05-02T16:09:46.584Z,102517.22
2023-05-02T16:11:18.465Z,102518.09
2023-05-02T16:12:50.464Z,102515.41
2023-05-02T16:14:24.222Z,102514.44
2023-05-02T16:15:56.411Z,102514.56
2023-05-02T16:17:28.382Z,102519.91
2023-05-02T16:19:00.419Z,102523.47
2023-05-02T16:20:36.957Z,102521.63
2023-05-02T16:22:08.951Z,102518.91
2023-05-02T16:23:40.855Z,102523.25
2023-05-02T16:25:13.559Z,102520.69
2023-05-02T16:26:46.019Z,102520.69
2023-05-02T16:28:18.026Z,102526.84
2023-05-02T16:29:49.944Z,102528.56
2023-05-02T16:31:21.897Z,102524.13
2023-05-02T16:32:54.237Z,102526.75
2023-05-02T16:34:26.187Z,102525.94
2023-05-02T16:36:02.552Z,102523.41
2023-05-02T16:37:35.483Z,102521.78
2023-05-02T16:39:07.457Z,102526.19
2023-05-02T16:40:40.694Z,102531.53
2023-05-02T16:42:12.962Z,102524.41
2023-05-02T16:43:44.897Z,102531.50
2023-05-02T16:45:16.944Z,102521.00
2023-05-02T16:46:49.011Z,102514.84
2023-05-02T16:48:23.080Z,102527.16
2023-05-02T16:49:56.314Z,102523.66
2023-05-02T16:51:28.276Z,102527.16
2023-05-02T16:53:00.176Z,102522.78
2023-05-02T16:54:32.176Z,102533.38
2023-05-02T16:56:04.356Z,102529.88
2023-05-02T16:57:36.775Z,102533.38
2023-05-02T16:59:08.814Z,102532.53
2023-05-02T17:00:41.215Z,102531.66
2023-05-02T17:02:14.452Z,102543.13
2023-05-02T17:03:47.026Z,102525.53
2023-05-02T17:05:20.280Z,102536.97
2023-05-02T17:06:55.164Z,102533.44
2023-05-02T17:08:27.248Z,102530.81
2023-05-02T17:10:00.014Z,102539.63
2023-05-02T17:11:32.145Z,102537.88
2023-05-02T17:13:04.501Z,102540.53
2023-05-02T17:14:37.221Z,102534.34
2023-05-02T17:16:09.564Z,102538.78
2023-05-02T17:17:41.547Z,102549.34
2023-05-02T17:19:13.610Z,102555.50
2023-05-02T17:20:46.912Z,102546.66
2023-05-02T17:22:19.338Z,102553.72
2023-05-02T17:23:51.258Z,102548.44
2023-05-02T17:25:23.342Z,102551.09
2023-05-02T17:26:55.291Z,102555.50
2023-05-02T17:28:27.251Z,102557.25
2023-05-02T17:29:59.437Z,102550.19
2023-05-02T17:31:31.759Z,102556.34
2023-05-02T17:33:03.988Z,102553.69
2023-05-02T17:34:37.010Z,102564.25
2023-05-02T17:36:09.129Z,102563.38
2023-05-02T17:37:41.241Z,102558.88
2023-05-02T17:39:13.747Z,102560.66
2023-05-02T17:40:45.798Z,102563.25
2023-05-02T17:42:17.818Z,102566.75
2023-05-02T17:43:50.021Z,102569.38
2023-05-02T17:45:22.177Z,102569.34
2023-05-02T17:46:55.315Z,102571.09
2023-05-02T17:48:27.421Z,102576.34
2023-05-02T17:49:59.522Z,102569.34
2023-05-02T17:51:33.934Z,102564.88
2023-05-02T17:53:06.899Z,102564.81
2023-05-02T17:54:38.960Z,102564.81
2023-05-02T17:56:11.135Z,102570.94
2023-05-02T17:57:43.337Z,102574.47